Time;durP1;ratioP1;P1;durP2;ratioP2;P2;SDS_P1;SDS_P2;PMS_P1;PMS_P2;Temp;Humidity;BMP_temperature;BMP_pressure;BME280_temperature;BME280_humidity;BME280_pressure;Samples;Min_cycle;Max_cycle;Signal;HPM_P1;HPM_P2
2023/10/30 00:01:00;;;;;;;;;5.60;5.60;;;;;16.55;37.33;99346.31;5070540;28;8938;-76
2023/10/30 00:03:38;;;;;;;;;6.00;5.40;;;;;16.60;37.01;99346.97;5069203;28;8874;-80
2023/10/30 00:06:08;;;;;;;;;6.00;5.60;;;;;16.48;37.59;99348.44;5053874;28;8881;-79
2023/10/30 00:08:36;;;;;;;;;6.00;6.00;;;;;16.40;37.74;99355.88;5054911;28;8844;-77
2023/10/30 00:11:05;;;;;;;;;3.00;3.00;;;;;16.51;37.51;99342.97;5052747;28;9006;-76
2023/10/30 00:13:35;;;;;;;;;5.80;4.80;;;;;16.71;37.27;99352.59;5038852;28;8826;-77
2023/10/30 00:16:05;;;;;;;;;5.20;4.20;;;;;16.67;37.55;99350.19;5068840;28;9690;-76
2023/10/30 00:18:34;;;;;;;;;4.80;4.80;;;;;16.66;37.47;99351.94;5070283;28;8866;-76
2023/10/30 00:21:03;;;;;;;;;4.80;4.20;;;;;16.71;37.48;99360.56;5069921;28;8854;-76
2023/10/30 00:23:32;;;;;;;;;4.80;4.60;;;;;16.75;37.39;99361.28;5070106;28;8847;-77
2023/10/30 00:26:02;;;;;;;;;5.00;5.00;;;;;16.82;37.18;99354.72;5034178;28;9766;-77
2023/10/30 00:28:32;;;;;;;;;4.00;4.00;;;;;16.87;37.38;99363.34;5069744;28;8843;-77
2023/10/30 00:31:03;;;;;;;;;4.20;4.20;;;;;16.94;37.14;99359.41;5070162;28;8972;-77
2023/10/30 00:33:32;;;;;;;;;6.00;5.00;;;;;16.85;37.34;99359.00;5072124;28;8866;-75
2023/10/30 00:36:01;;;;;;;;;5.20;4.80;;;;;16.98;37.05;99357.47;5077450;28;8942;-77
2023/10/30 00:38:30;;;;;;;;;4.80;4.20;;;;;17.00;37.14;99363.53;5018073;28;8926;-77
2023/10/30 00:40:58;;;;;;;;;4.80;4.80;;;;;17.04;36.99;99358.94;5050686;28;8849;-84
2023/10/30 00:43:28;;;;;;;;;4.80;4.80;;;;;17.07;37.03;99354.34;5033967;28;8879;-76
2023/10/30 00:45:57;;;;;;;;;4.60;4.60;;;;;17.13;36.86;99358.47;5060305;28;8842;-76
2023/10/30 00:48:27;;;;;;;;;6.00;5.00;;;;;17.07;37.17;99358.81;5090096;28;8936;-77
2023/10/30 00:50:56;;;;;;;;;5.00;5.00;;;;;17.03;37.27;99352.78;5089475;28;8872;-78
2023/10/30 00:53:25;;;;;;;;;5.40;5.00;;;;;17.06;37.04;99354.41;5008365;28;8964;-78
2023/10/30 00:55:54;;;;;;;;;6.00;6.00;;;;;17.03;37.19;99349.28;5050188;28;8841;-78
2023/10/30 00:58:22;;;;;;;;;4.40;4.00;;;;;16.89;37.37;99352.59;5049882;28;8849;-77
2023/10/30 01:00:52;;;;;;;;;5.80;5.80;;;;;16.67;38.00;99352.84;5023451;28;9649;-77
2023/10/30 01:03:23;;;;;;;;;6.80;6.00;;;;;16.65;37.97;99350.25;5032243;28;8838;-77
2023/10/30 01:06:01;;;;;;;;;4.60;4.60;;;;;16.67;38.11;99347.53;5031104;28;8853;-78
2023/10/30 01:08:30;;;;;;;;;5.00;5.00;;;;;16.53;38.09;99354.38;5064273;28;9575;-79
2023/10/30 01:10:59;;;;;;;;;6.00;5.60;;;;;16.40;38.80;99350.56;5064065;28;8883;-76
2023/10/30 01:13:27;;;;;;;;;5.20;5.20;;;;;16.31;38.74;99351.00;5064038;28;9010;-77
2023/10/30 01:15:57;;;;;;;;;5.40;5.20;;;;;16.30;38.75;99347.47;5054608;28;8846;-77
2023/10/30 01:18:26;;;;;;;;;5.00;5.00;;;;;16.42;38.32;99352.19;5068523;28;8858;-77
2023/10/30 01:20:56;;;;;;;;;6.20;5.40;;;;;16.48;38.48;99359.03;5068809;28;8811;-77
2023/10/30 01:23:26;;;;;;;;;5.80;5.00;;;;;16.41;38.63;99347.81;5069024;28;8986;-78
2023/10/30 01:25:54;;;;;;;;;4.80;4.80;;;;;16.49;38.54;99349.28;5084305;28;8846;-78
2023/10/30 01:28:23;;;;;;;;;4.80;4.40;;;;;16.62;38.06;99353.03;5067100;28;8858;-77
2023/10/30 01:30:52;;;;;;;;;4.20;4.20;;;;;16.73;38.02;99358.69;5081960;28;8846;-78
2023/10/30 01:33:23;;;;;;;;;6.40;6.40;;;;;16.78;37.84;99359.31;5067293;28;8935;-77
2023/10/30 01:35:52;;;;;;;;;4.80;4.80;;;;;16.76;37.87;99353.22;5084183;28;8877;-75
2023/10/30 01:38:21;;;;;;;;;4.40;4.40;;;;;16.69;37.86;99353.63;5067056;28;8962;-78
2023/10/30 01:40:52;;;;;;;;;8.80;7.20;;;;;16.70;37.80;99356.19;5067151;28;8858;-77
2023/10/30 01:43:30;;;;;;;;;6.80;4.00;;;;;16.75;37.76;99359.47;5033809;28;8866;-77
2023/10/30 01:46:00;;;;;;;;;4.80;4.80;;;;;16.65;38.14;99358.22;5067778;28;8834;-77
2023/10/30 01:48:32;;;;;;;;;5.00;3.80;;;;;16.60;37.94;99352.25;5068217;28;8877;-76
2023/10/30 01:51:02;;;;;;;;;4.80;4.80;;;;;16.54;38.19;99355.22;5067182;28;8846;-77
2023/10/30 01:53:32;;;;;;;;;6.20;4.80;;;;;16.58;38.19;99347.03;5067011;28;8992;-78
2023/10/30 01:56:04;;;;;;;;;5.00;3.80;;;;;16.43;38.42;99356.56;5071445;28;8850;-76
2023/10/30 01:58:40;;;;;;;;;5.00;4.60;;;;;16.37;38.66;99348.06;5070516;28;8923;-77
2023/10/30 02:01:09;;;;;;;;;5.00;4.20;;;;;16.30;38.50;99350.13;5066863;28;8858;-76
2023/10/30 02:03:38;;;;;;;;;4.20;4.20;;;;;16.10;39.01;99343.13;5083129;28;9016;-78
2023/10/30 02:06:07;;;;;;;;;3.80;3.80;;;;;16.18;38.75;99348.06;5072135;28;8838;-76
2023/10/30 02:08:37;;;;;;;;;5.00;5.00;;;;;16.16;38.96;99352.59;5054181;28;9032;-77
2023/10/30 02:11:07;;;;;;;;;4.80;4.80;;;;;16.10;39.19;99350.25;5071182;28;8842;-76
2023/10/30 02:13:36;;;;;;;;;5.60;5.60;;;;;16.02;39.06;99351.44;5071006;28;8943;-77
2023/10/30 02:16:06;;;;;;;;;4.00;4.00;;;;;15.80;39.74;99348.06;5054267;28;8873;-77
2023/10/30 02:18:35;;;;;;;;;4.60;4.60;;;;;15.58;39.79;99342.84;5057546;28;8975;-77
2023/10/30 02:21:06;;;;;;;;;6.20;2.40;;;;;15.56;39.97;99345.56;5067274;28;8836;-77
2023/10/30 02:23:35;;;;;;;;;5.00;4.00;;;;;15.52;40.02;99341.31;5067382;28;9645;-75
2023/10/30 02:26:05;;;;;;;;;3.40;3.40;;;;;15.51;40.27;99341.38;5072040;28;8868;-77
2023/10/30 02:28:35;;;;;;;;;3.40;3.40;;;;;15.64;39.95;99343.47;5087400;28;8965;-76
2023/10/30 02:31:04;;;;;;;;;4.20;4.20;;;;;15.63;39.92;99347.03;5070853;28;8843;-77
2023/10/30 02:33:33;;;;;;;;;4.20;4.20;;;;;15.60;39.88;99336.59;5069259;28;9599;-76
2023/10/30 02:36:02;;;;;;;;;4.00;4.00;;;;;15.76;39.56;99342.03;5087321;28;8905;-77
2023/10/30 02:38:30;;;;;;;;;3.40;3.40;;;;;15.79;39.58;99343.69;5070664;28;8858;-78
2023/10/30 02:41:00;;;;;;;;;6.20;4.60;;;;;15.83;39.46;99346.13;5071374;28;8930;-79
2023/10/30 02:43:30;;;;;;;;;7.00;5.20;;;;;16.01;39.09;99338.25;5069084;28;8901;-77
2023/10/30 02:45:59;;;;;;;;;6.20;4.80;;;;;16.04;39.06;99340.78;5068916;28;8845;-80
2023/10/30 02:48:30;;;;;;;;;4.00;4.00;;;;;16.17;38.51;99335.72;5067770;28;8836;-75
2023/10/30 02:50:59;;;;;;;;;6.00;4.60;;;;;16.27;38.40;99338.84;5068990;28;8839;-77
2023/10/30 02:53:28;;;;;;;;;4.00;3.40;;;;;16.11;38.69;99336.88;5069098;28;8840;-78
2023/10/30 02:55:57;;;;;;;;;3.40;3.40;;;;;15.87;39.47;99349.50;5068783;28;8941;-77
2023/10/30 02:58:25;;;;;;;;;3.40;3.40;;;;;15.98;39.07;99344.56;5068846;28;9584;-77
2023/10/30 03:00:57;;;;;;;;;4.00;4.00;;;;;15.87;39.38;99351.28;5068694;28;8828;-77
2023/10/30 03:03:26;;;;;;;;;4.00;4.00;;;;;16.11;38.81;99355.44;5050903;28;8865;-77
2023/10/30 03:05:55;;;;;;;;;4.00;4.00;;;;;16.08;38.87;99352.94;5069026;28;8844;-79
2023/10/30 03:08:25;;;;;;;;;5.40;4.80;;;;;16.19;38.54;99355.06;5069569;28;8995;-76
2023/10/30 03:10:54;;;;;;;;;3.00;3.00;;;;;16.08;38.74;99363.56;5054171;28;9653;-79
2023/10/30 03:13:23;;;;;;;;;3.00;3.00;;;;;16.14;38.72;99357.97;5071520;28;8976;-77
2023/10/30 03:15:52;;;;;;;;;4.40;4.40;;;;;16.14;38.83;99349.16;5085006;28;8869;-77
2023/10/30 03:18:22;;;;;;;;;3.00;3.00;;;;;16.03;38.78;99344.34;5053870;28;9592;-79
2023/10/30 03:20:52;;;;;;;;;3.00;3.00;;;;;16.11;38.81;99351.94;5072142;28;8871;-79
2023/10/30 03:23:21;;;;;;;;;3.40;3.40;;;;;16.02;39.14;99348.78;5068772;28;8969;-79
2023/10/30 03:25:50;;;;;;;;;4.00;4.00;;;;;15.82;39.29;99346.19;5068468;28;8863;-81
2023/10/30 03:28:19;;;;;;;;;2.20;2.20;;;;;15.79;39.36;99347.22;5069664;28;8861;-75
2023/10/30 03:30:48;;;;;;;;;3.80;3.60;;;;;15.80;39.21;99346.28;5088708;28;8846;-76
2023/10/30 03:33:16;;;;;;;;;2.00;2.00;;;;;15.79;39.29;99348.97;5039681;28;8869;-76
2023/10/30 03:35:47;;;;;;;;;4.80;4.80;;;;;15.76;39.25;99349.16;5066995;28;8836;-78
2023/10/30 03:38:16;;;;;;;;;3.20;3.20;;;;;15.67;39.45;99347.75;5068013;28;8871;-76
2023/10/30 03:40:45;;;;;;;;;3.20;3.20;;;;;15.75;39.43;99342.09;5068938;28;9640;-76
2023/10/30 03:43:16;;;;;;;;;3.00;3.00;;;;;15.72;39.29;99348.41;5089568;28;8846;-77
2023/10/30 03:45:45;;;;;;;;;2.80;2.80;;;;;15.78;38.97;99345.47;5088783;28;8846;-76
2023/10/30 03:48:15;;;;;;;;;4.00;4.00;;;;;15.83;39.06;99346.13;5071446;28;8871;-77
2023/10/30 03:50:48;;;;;;;;;3.20;3.00;;;;;15.76;39.13;99344.69;5059408;28;9031;-76
2023/10/30 03:53:17;;;;;;;;;3.00;3.00;;;;;15.69;39.13;99345.03;5067985;28;8860;-80
2023/10/30 03:55:46;;;;;;;;;5.00;3.00;;;;;15.60;39.23;99343.66;5074596;28;8846;-79
2023/10/30 03:58:15;;;;;;;;;2.60;2.40;;;;;15.57;39.42;99333.19;5070171;28;8903;-78
2023/10/30 04:00:44;;;;;;;;;3.80;3.80;;;;;15.60;39.38;99339.25;5070839;28;8850;-77
2023/10/30 04:03:13;;;;;;;;;4.00;4.00;;;;;15.63;39.28;99344.38;5050871;28;8957;-77
2023/10/30 04:05:42;;;;;;;;;3.60;3.60;;;;;15.79;39.03;99341.03;5063378;28;8861;-77
2023/10/30 04:08:12;;;;;;;;;2.60;2.20;;;;;15.75;39.07;99339.47;5050341;28;8991;-76
2023/10/30 04:10:41;;;;;;;;;3.20;3.20;;;;;15.78;38.97;99344.63;5048533;28;8875;-77
2023/10/30 04:13:10;;;;;;;;;3.00;3.00;;;;;15.73;38.94;99334.22;5030937;28;8857;-76
2023/10/30 04:15:39;;;;;;;;;12.40;11.00;;;;;15.79;38.91;99339.25;5048788;28;8869;-77
2023/10/30 04:18:08;;;;;;;;;5.40;5.40;;;;;15.86;38.74;99333.69;5080802;28;8843;-77
2023/10/30 04:20:37;;;;;;;;;4.00;4.00;;;;;15.84;38.70;99331.94;5072481;28;8972;-76
2023/10/30 04:23:06;;;;;;;;;34.20;31.40;;;;;16.00;38.49;99328.56;5075517;28;8939;-76
2023/10/30 04:25:36;;;;;;;;;14.20;13.60;;;;;16.17;38.43;99328.66;5072019;28;8874;-78
2023/10/30 04:28:05;;;;;;;;;7.80;6.60;;;;;16.23;37.98;99336.31;5069162;28;8838;-77
2023/10/30 04:30:35;;;;;;;;;14.00;14.00;;;;;16.14;38.33;99330.59;5068850;28;8931;-78
2023/10/30 04:33:04;;;;;;;;;5.40;4.20;;;;;16.22;37.80;99328.41;5068678;28;9771;-78
2023/10/30 04:35:33;;;;;;;;;3.00;3.00;;;;;16.07;37.97;99334.47;5069434;28;8834;-77
2023/10/30 04:38:02;;;;;;;;;15.20;13.40;;;;;16.08;38.20;99329.09;5035058;28;8894;-76
2023/10/30 04:40:31;;;;;;;;;3.80;3.80;;;;;15.95;37.96;99328.81;5069283;28;8869;-78
2023/10/30 04:43:01;;;;;;;;;4.20;3.00;;;;;15.98;37.87;99326.03;5069448;28;8859;-76
2023/10/30 04:45:30;;;;;;;;;4.00;4.00;;;;;15.89;38.27;99330.84;5069361;28;8985;-76
2023/10/30 04:47:59;;;;;;;;;4.00;4.00;;;;;15.89;38.28;99331.75;5066867;28;8874;-78
2023/10/30 04:50:28;;;;;;;;;4.80;3.80;;;;;15.84;38.29;99331.09;5068822;28;8862;-77
2023/10/30 04:52:57;;;;;;;;;4.20;3.40;;;;;15.92;37.75;99330.72;5068946;28;8866;-76
2023/10/30 04:55:27;;;;;;;;;8.80;8.80;;;;;15.84;38.22;99329.28;5066885;28;9008;-77
2023/10/30 04:57:56;;;;;;;;;4.00;4.00;;;;;15.71;38.46;99338.72;5069984;28;8885;-76
2023/10/30 05:00:26;;;;;;;;;3.00;3.00;;;;;15.82;38.07;99347.06;5066900;28;8862;-77
2023/10/30 05:02:55;;;;;;;;;3.20;3.20;;;;;15.92;37.79;99336.88;5066286;28;8890;-75
2023/10/30 05:05:24;;;;;;;;;3.00;3.00;;;;;16.02;37.56;99338.19;5068800;28;8838;-77
2023/10/30 05:07:53;;;;;;;;;4.40;3.80;;;;;15.99;37.71;99345.44;5050330;28;8878;-78
2023/10/30 05:10:22;;;;;;;;;4.80;4.00;;;;;15.89;37.92;99349.41;5069208;28;8869;-78
2023/10/30 05:12:50;;;;;;;;;3.00;3.00;;;;;15.94;37.57;99336.81;5033607;28;9603;-77
2023/10/30 05:15:21;;;;;;;;;4.20;4.20;;;;;15.77;38.15;99340.25;5067587;28;8838;-75
2023/10/30 05:17:51;;;;;;;;;5.20;5.20;;;;;15.76;38.28;99341.19;5052973;28;8923;-75
2023/10/30 05:20:20;;;;;;;;;1.00;1.00;;;;;15.84;37.90;99325.78;5068845;28;8955;-74
2023/10/30 05:22:48;;;;;;;;;4.20;3.20;;;;;15.64;38.07;99337.28;5068361;28;8965;-75
2023/10/30 05:25:20;;;;;;;;;3.00;2.20;;;;;15.56;38.28;99332.31;5033018;28;8842;-75
2023/10/30 05:28:03;;;;;;;;;2.20;2.20;;;;;15.57;38.14;99339.34;5067243;28;8859;-74
2023/10/30 05:30:33;;;;;;;;;5.00;4.60;;;;;15.68;37.95;99333.59;5069193;28;8858;-74
2023/10/30 05:33:04;;;;;;;;;3.00;2.80;;;;;15.79;37.59;99336.63;5060098;28;8830;-74
2023/10/30 05:35:33;;;;;;;;;7.20;6.00;;;;;15.63;38.07;99325.84;5059080;28;8896;-74
2023/10/30 05:38:04;;;;;;;;;7.40;7.20;;;;;15.73;37.72;99328.91;5068619;28;8854;-76
2023/10/30 05:40:33;;;;;;;;;6.60;6.20;;;;;15.97;37.66;99334.03;5067523;28;8846;-76
2023/10/30 05:43:02;;;;;;;;;7.40;6.60;;;;;16.28;37.03;99321.97;5068211;28;9012;-71
2023/10/30 05:45:31;;;;;;;;;5.20;4.20;;;;;16.50;36.62;99327.13;5067383;28;8963;-77
2023/10/30 05:47:59;;;;;;;;;8.40;6.60;;;;;16.71;36.65;99323.41;5067407;28;9020;-78
2023/10/30 05:50:30;;;;;;;;;10.40;10.00;;;;;16.95;37.14;99331.09;5067638;28;8845;-77
2023/10/30 05:52:59;;;;;;;;;11.80;9.80;;;;;17.08;36.78;99318.88;5068049;28;8885;-77
2023/10/30 05:55:28;;;;;;;;;5.60;5.40;;;;;17.13;35.68;99319.50;5067954;28;8850;-77
2023/10/30 05:57:57;;;;;;;;;14.00;13.40;;;;;17.28;35.81;99314.38;5067985;28;8858;-77
2023/10/30 06:00:26;;;;;;;;;7.00;7.00;;;;;17.36;35.00;99322.78;5052424;28;8996;-76
2023/10/30 06:02:55;;;;;;;;;11.40;11.40;;;;;17.48;35.41;99327.47;5067870;28;8955;-76
2023/10/30 06:05:25;;;;;;;;;15.20;14.00;;;;;17.66;35.78;99327.41;5067127;28;8862;-74
2023/10/30 06:07:55;;;;;;;;;18.00;18.00;;;;;17.81;34.86;99329.22;5066363;28;8858;-75
2023/10/30 06:10:24;;;;;;;;;10.20;9.00;;;;;17.65;34.65;99328.38;5067924;28;8995;-74
2023/10/30 06:12:53;;;;;;;;;9.40;9.40;;;;;17.66;34.76;99335.38;5067691;28;8866;-76
2023/10/30 06:15:22;;;;;;;;;14.20;13.80;;;;;17.86;35.18;99329.00;5032270;28;9065;-77
2023/10/30 06:17:51;;;;;;;;;8.40;7.00;;;;;17.99;34.88;99330.03;5067080;28;8874;-76
2023/10/30 06:20:20;;;;;;;;;5.80;5.80;;;;;18.09;34.31;99333.06;5032409;28;8850;-75
2023/10/30 06:22:49;;;;;;;;;4.80;4.80;;;;;18.19;34.11;99322.78;5032164;28;8945;-77
2023/10/30 06:25:20;;;;;;;;;12.20;7.40;;;;;18.29;34.23;99323.94;5044752;28;8926;-77
2023/10/30 06:27:48;;;;;;;;;11.40;11.40;;;;;18.41;34.17;99317.94;5044926;28;8887;-74
2023/10/30 06:30:18;;;;;;;;;8.80;8.80;;;;;18.41;33.83;99317.94;4995211;28;8873;-75
2023/10/30 06:32:46;;;;;;;;;6.00;6.00;;;;;18.54;33.72;99318.09;5028328;28;8852;-75
2023/10/30 06:35:15;;;;;;;;;44.00;37.75;;;;;18.53;35.20;99314.59;4995753;28;8872;-78
2023/10/30 06:37:44;;;;;;;;;22.00;21.40;;;;;18.63;34.66;99327.34;5043168;28;9781;-75
2023/10/30 06:40:13;;;;;;;;;32.20;27.60;;;;;18.65;35.01;99334.31;5043904;28;8839;-76
2023/10/30 06:42:44;;;;;;;;;33.60;30.60;;;;;18.75;35.49;99330.16;5044467;28;8962;-75
2023/10/30 06:45:13;;;;;;;;;25.20;21.80;;;;;18.80;35.49;99335.25;5027739;28;8837;-77
2023/10/30 06:47:43;;;;;;;;;21.60;21.40;;;;;18.89;35.71;99334.72;5026452;28;8857;-75
2023/10/30 06:50:12;;;;;;;;;17.60;15.80;;;;;18.98;35.67;99337.78;5044020;28;9596;-75
2023/10/30 06:52:40;;;;;;;;;15.40;13.20;;;;;19.00;35.41;99342.06;5046220;28;8864;-76
2023/10/30 06:55:09;;;;;;;;;6.20;6.20;;;;;19.04;35.41;99343.59;5047821;28;9669;-75
2023/10/30 06:57:38;;;;;;;;;11.40;11.40;;;;;19.06;35.27;99351.50;5084771;28;8871;-82
2023/10/30 07:00:10;;;;;;;;;18.00;16.20;;;;;19.11;35.51;99344.94;5069026;28;9687;-76
2023/10/30 07:02:40;;;;;;;;;20.40;19.40;;;;;19.12;35.58;99348.47;5035340;28;9016;-75
2023/10/30 07:05:09;;;;;;;;;7.00;5.20;;;;;19.16;35.60;99349.13;5035976;28;8842;-75
2023/10/30 07:07:38;;;;;;;;;21.60;20.20;;;;;19.20;35.48;99356.03;5070206;28;8894;-78
2023/10/30 07:10:08;;;;;;;;;21.00;20.60;;;;;19.24;35.56;99354.88;5060295;28;8889;-76
2023/10/30 07:12:36;;;;;;;;;13.20;13.00;;;;;19.31;35.41;99354.41;5034980;28;8858;-75
2023/10/30 07:15:06;;;;;;;;;18.60;17.20;;;;;19.27;35.31;99355.56;5071545;28;8850;-75
2023/10/30 07:17:36;;;;;;;;;14.80;13.60;;;;;19.30;35.68;99351.84;5070780;28;8847;-77
2023/10/30 07:20:07;;;;;;;;;14.00;12.40;;;;;19.32;35.05;99355.28;5070240;28;8835;-74
2023/10/30 07:22:36;;;;;;;;;14.40;13.40;;;;;19.36;35.17;99351.47;5070501;28;8870;-75
2023/10/30 07:25:06;;;;;;;;;14.20;12.40;;;;;19.41;35.36;99349.38;5070943;28;9619;-74
2023/10/30 07:27:34;;;;;;;;;24.40;24.20;;;;;19.48;35.51;99358.72;5035253;28;9589;-73
2023/10/30 07:30:04;;;;;;;;;17.20;17.00;;;;;19.50;35.40;99361.31;5071015;28;9634;-76
2023/10/30 07:32:33;;;;;;;;;18.60;18.00;;;;;19.54;35.24;99359.31;5070917;28;8949;-77
2023/10/30 07:35:04;;;;;;;;;14.60;14.20;;;;;19.59;35.13;99359.91;5070427;28;8870;-76
2023/10/30 07:37:35;;;;;;;;;14.60;12.00;;;;;19.65;34.94;99354.19;5035185;28;8854;-76
2023/10/30 07:40:05;;;;;;;;;10.80;10.20;;;;;19.64;35.02;99357.81;5070237;28;8853;-74
2023/10/30 07:42:34;;;;;;;;;9.60;8.80;;;;;19.70;35.31;99360.94;5050287;28;8870;-76
2023/10/30 07:45:03;;;;;;;;;10.80;9.40;;;;;19.73;35.22;99361.72;5068708;28;8850;-74
2023/10/30 07:47:32;;;;;;;;;14.40;12.80;;;;;19.76;34.71;99364.19;5054745;28;8870;-76
2023/10/30 07:50:13;;;;;;;;;14.00;13.00;;;;;19.80;34.76;99361.25;5056935;28;8865;-75
2023/10/30 07:52:42;;;;;;;;;13.20;13.20;;;;;19.83;34.55;99363.72;5068740;28;9658;-75
2023/10/30 07:55:11;;;;;;;;;14.60;14.60;;;;;19.87;34.82;99367.91;5065187;28;8908;-78
2023/10/30 07:57:42;;;;;;;;;25.40;25.40;;;;;19.92;34.69;99372.97;5070407;28;8863;-74
2023/10/30 08:00:13;;;;;;;;;22.00;20.60;;;;;19.96;34.87;99369.13;5069810;28;8847;-74
2023/10/30 08:02:41;;;;;;;;;25.00;22.60;;;;;20.01;34.61;99369.72;5069261;28;8873;-76
2023/10/30 08:05:11;;;;;;;;;18.00;17.00;;;;;20.03;34.82;99375.81;5069773;28;8981;-77
2023/10/30 08:07:41;;;;;;;;;17.60;17.60;;;;;20.00;34.33;99361.81;5070437;28;8933;-75
2023/10/30 08:10:11;;;;;;;;;15.20;14.80;;;;;19.96;34.67;99360.28;5057009;28;8996;-76
2023/10/30 08:12:40;;;;;;;;;10.80;10.00;;;;;19.92;34.45;99354.28;5069658;28;9728;-75
2023/10/30 08:15:10;;;;;;;;;9.60;9.00;;;;;19.88;34.52;99358.94;5068918;28;8842;-75
2023/10/30 08:17:38;;;;;;;;;11.40;8.80;;;;;19.89;34.56;99359.81;5069933;28;8865;-75
2023/10/30 08:20:09;;;;;;;;;8.00;8.00;;;;;19.85;34.19;99361.81;5069862;28;8858;-74
2023/10/30 08:22:38;;;;;;;;;7.40;6.40;;;;;19.81;33.77;99360.28;5069291;28;8846;-75
2023/10/30 08:25:09;;;;;;;;;6.00;6.00;;;;;19.81;33.78;99365.63;5068956;28;8830;-75
2023/10/30 08:27:38;;;;;;;;;7.80;6.20;;;;;19.81;33.75;99362.94;5076849;28;8997;-76
2023/10/30 08:30:08;;;;;;;;;7.60;7.60;;;;;19.77;33.94;99368.59;5081532;28;8895;-75
2023/10/30 08:32:39;;;;;;;;;8.00;6.20;;;;;19.73;33.92;99375.91;5067537;28;8878;-76
2023/10/30 08:35:09;;;;;;;;;11.00;11.00;;;;;19.78;33.91;99364.94;5068101;28;8862;-74
2023/10/30 08:37:37;;;;;;;;;9.80;8.40;;;;;19.80;33.71;99373.72;5069086;28;8854;-75
2023/10/30 08:40:09;;;;;;;;;9.80;8.60;;;;;19.78;33.53;99370.28;5068719;28;8859;-74
2023/10/30 08:42:38;;;;;;;;;7.60;7.60;;;;;19.86;33.79;99368.00;5048744;28;8838;-74
2023/10/30 08:45:08;;;;;;;;;8.60;8.20;;;;;19.84;33.85;99362.78;5067631;28;8846;-75
2023/10/30 08:47:37;;;;;;;;;7.80;7.00;;;;;19.87;33.44;99362.56;5068751;28;8862;-76
2023/10/30 08:50:08;;;;;;;;;6.00;6.00;;;;;19.88;33.11;99366.09;5069311;28;8862;-75
2023/10/30 08:52:38;;;;;;;;;8.20;7.20;;;;;19.93;33.49;99363.13;5032843;28;8850;-75
2023/10/30 08:55:09;;;;;;;;;6.20;6.20;;;;;19.98;33.40;99361.03;5068238;28;8897;-75
2023/10/30 08:57:38;;;;;;;;;2.20;1.20;;;;;20.03;32.98;99364.28;5032977;28;8988;-76
2023/10/30 09:00:08;;;;;;;;;6.00;6.00;;;;;20.11;32.80;99356.66;5068474;28;8866;-75
2023/10/30 09:02:38;;;;;;;;;8.20;7.60;;;;;20.17;32.96;99366.91;5068444;28;8890;-78
2023/10/30 09:05:07;;;;;;;;;10.00;10.00;;;;;20.25;33.13;99353.97;5068663;28;8881;-75
2023/10/30 09:07:36;;;;;;;;;8.20;7.80;;;;;20.33;32.43;99349.94;5068132;28;8866;-74
2023/10/30 09:10:06;;;;;;;;;8.00;8.00;;;;;20.42;31.98;99357.34;5068256;28;8842;-74
2023/10/30 09:12:36;;;;;;;;;10.00;9.40;;;;;20.61;31.95;99355.19;5033499;28;8963;-75
2023/10/30 09:15:07;;;;;;;;;6.80;6.80;;;;;20.72;31.91;99357.16;5032177;28;8862;-75
2023/10/30 09:17:37;;;;;;;;;6.40;6.40;;;;;20.84;31.55;99351.00;5068164;28;9588;-76
2023/10/30 09:20:12;;;;;;;;;4.40;4.40;;;;;20.86;29.74;99346.41;5032266;28;8850;-74
2023/10/30 09:22:41;;;;;;;;;6.40;6.40;;;;;20.93;29.61;99348.72;5067848;28;9000;-74
2023/10/30 09:25:10;;;;;;;;;8.60;8.00;;;;;21.04;30.36;99347.00;5050496;28;8850;-74
2023/10/30 09:27:40;;;;;;;;;9.20;7.80;;;;;21.19;30.85;99352.28;5068153;28;8985;-76
2023/10/30 09:30:10;;;;;;;;;10.80;9.40;;;;;21.13;30.76;99353.56;5066947;28;8858;-75
2023/10/30 09:32:39;;;;;;;;;8.40;8.00;;;;;21.18;31.09;99351.44;5067990;28;8858;-75
2023/10/30 09:35:09;;;;;;;;;7.00;7.00;;;;;21.23;31.65;99351.09;5067985;28;8873;-75
2023/10/30 09:37:39;;;;;;;;;7.60;7.60;;;;;21.30;31.45;99352.41;5033348;28;9698;-76
2023/10/30 09:40:09;;;;;;;;;9.00;8.00;;;;;21.30;31.35;99347.06;5032986;28;8870;-75
2023/10/30 09:42:49;;;;;;;;;7.80;6.60;;;;;21.31;31.53;99342.56;5032937;28;8866;-74
2023/10/30 09:45:22;;;;;;;;;9.60;9.00;;;;;21.22;31.66;99339.56;5066166;28;8870;-75
2023/10/30 09:47:53;;;;;;;;;3.60;3.60;;;;;21.22;30.70;99331.56;5067475;28;8874;-75
2023/10/30 09:50:24;;;;;;;;;6.00;5.20;;;;;21.28;30.54;99332.94;5044586;28;8860;-74
2023/10/30 09:52:54;;;;;;;;;6.60;6.60;;;;;21.26;30.20;99318.84;5044552;28;9019;-73
2023/10/30 09:55:25;;;;;;;;;8.00;8.00;;;;;21.32;30.33;99321.06;5044649;28;8972;-71
2023/10/30 09:57:55;;;;;;;;;6.60;6.60;;;;;21.37;30.56;99315.38;5044994;28;8926;-72
2023/10/30 10:00:24;;;;;;;;;5.00;5.00;;;;;21.39;30.00;99317.00;5044913;28;9663;-70
2023/10/30 10:02:53;;;;;;;;;14.80;14.60;;;;;21.50;30.36;99312.72;5044883;28;9696;-70
2023/10/30 10:05:22;;;;;;;;;9.60;8.80;;;;;21.54;31.12;99307.06;5044992;28;8922;-70
2023/10/30 10:07:52;;;;;;;;;10.00;8.80;;;;;21.68;30.02;99308.78;5044330;28;8914;-72
2023/10/30 10:10:21;;;;;;;;;9.20;6.80;;;;;21.62;29.26;99303.88;5045449;28;8837;-71
2023/10/30 10:12:52;;;;;;;;;10.40;6.20;;;;;21.64;29.48;99300.13;5044976;28;8887;-70
2023/10/30 10:15:24;;;;;;;;;7.00;6.60;;;;;21.73;29.25;99290.59;5028073;28;8903;-70
2023/10/30 10:17:53;;;;;;;;;8.80;7.80;;;;;21.66;29.24;99289.31;5045019;28;8892;-71
2023/10/30 10:20:23;;;;;;;;;9.00;7.60;;;;;21.78;29.51;99280.41;5032876;28;8890;-70
2023/10/30 10:22:52;;;;;;;;;5.20;5.20;;;;;21.86;28.72;99279.00;5031257;28;9082;-71
2023/10/30 10:25:21;;;;;;;;;1.00;0.40;;;;;22.05;28.88;99276.66;5011663;28;8900;-71
2023/10/30 10:27:50;;;;;;;;;8.00;7.80;;;;;22.23;29.00;99278.00;5056805;28;9561;-70
2023/10/30 10:30:25;;;;;;;;;9.60;9.60;;;;;22.39;27.54;99276.88;5070792;28;8862;-73
2023/10/30 10:32:54;;;;;;;;;7.00;7.00;;;;;22.52;27.22;99283.03;5052028;28;8870;-71
2023/10/30 10:35:23;;;;;;;;;7.20;6.80;;;;;22.58;26.74;99274.56;5034859;28;8803;-71
2023/10/30 10:38:08;;;;;;;;;9.00;8.20;;;;;22.94;26.53;99269.19;5070937;28;8854;-71
2023/10/30 10:40:38;;;;;;;;;7.80;6.80;;;;;22.76;25.32;99274.97;5070934;28;8862;-71
2023/10/30 10:43:08;;;;;;;;;7.00;6.40;;;;;22.45;25.24;99272.91;5070793;28;8870;-71
2023/10/30 10:45:41;;;;;;;;;10.60;10.60;;;;;22.81;25.10;99271.97;5070139;28;8881;-71
2023/10/30 10:48:10;;;;;;;;;9.60;9.20;;;;;22.70;25.14;99271.91;5070673;28;8960;-70
2023/10/30 10:50:40;;;;;;;;;11.00;10.80;;;;;23.14;25.24;99262.31;5069177;28;8901;-72
2023/10/30 10:53:10;;;;;;;;;5.80;5.80;;;;;23.21;23.89;99263.53;5070378;28;8904;-71
2023/10/30 10:55:42;;;;;;;;;4.00;4.00;;;;;23.18;23.46;99258.41;5066652;28;8852;-73
2023/10/30 10:58:14;;;;;;;;;7.20;5.00;;;;;22.95;23.76;99255.69;5067630;28;8859;-73
2023/10/30 11:00:48;;;;;;;;;6.00;5.60;;;;;23.35;24.02;99249.03;5067702;28;8852;-71
2023/10/30 11:03:17;;;;;;;;;6.00;6.00;;;;;23.55;23.49;99245.66;5067511;28;8824;-71
2023/10/30 11:05:48;;;;;;;;;7.80;6.80;;;;;23.67;23.04;99251.84;5068172;28;8864;-71
2023/10/30 11:08:40;;;;;;;;;9.60;8.00;;;;;23.72;23.37;99246.97;5033278;28;8860;-71
2023/10/30 11:11:16;;;;;;;;;7.20;7.20;;;;;23.93;23.28;99236.31;5054628;28;8864;-71
2023/10/30 11:13:59;;;;;;;;;6.60;6.60;;;;;24.04;23.08;99237.28;5067506;28;8879;-71
2023/10/30 11:16:34;;;;;;;;;4.00;4.00;;;;;24.12;23.06;99232.97;5050190;28;8872;-71
2023/10/30 11:19:07;;;;;;;;;4.80;4.60;;;;;24.19;22.82;99221.75;5067688;28;8865;-71
2023/10/30 11:21:36;;;;;;;;;8.40;8.40;;;;;24.34;22.96;99225.84;5067952;28;8840;-72
2023/10/30 11:24:06;;;;;;;;;7.20;7.20;;;;;24.41;22.54;99218.97;5050486;28;8867;-71
2023/10/30 11:26:38;;;;;;;;;6.00;5.00;;;;;24.48;22.63;99217.47;5058606;28;8868;-72
2023/10/30 11:29:09;;;;;;;;;5.40;4.00;;;;;24.53;22.15;99217.09;5019775;28;8862;-72
2023/10/30 11:31:54;;;;;;;;;5.80;5.80;;;;;24.70;22.16;99215.66;5069827;28;8850;-72
2023/10/30 11:34:31;;;;;;;;;7.00;6.00;;;;;24.58;23.02;99214.00;5069769;28;8885;-72
2023/10/30 11:37:03;;;;;;;;;10.00;7.00;;;;;24.58;23.81;99216.69;5069670;28;8850;-72
2023/10/30 11:39:35;;;;;;;;;5.40;5.20;;;;;24.58;23.61;99205.94;5070056;28;8858;-70
2023/10/30 11:42:29;;;;;;;;;6.60;6.60;;;;;24.47;23.69;99207.72;5069576;28;8850;-71
2023/10/30 11:45:18;;;;;;;;;8.20;6.80;;;;;24.59;24.06;99207.66;5069475;28;8993;-70
2023/10/30 11:47:55;;;;;;;;;6.60;6.60;;;;;24.46;24.28;99202.47;5069462;28;8874;-73
2023/10/30 11:50:27;;;;;;;;;7.40;7.40;;;;;24.44;24.25;99199.06;5069793;28;9576;-71
2023/10/30 11:52:59;;;;;;;;;8.60;8.60;;;;;24.43;24.29;99195.50;5069198;28;8859;-72